sensor_id;sensor_type;location;lat;lon;timestamp;P1;durP1;ratioP1;P2;durP2;ratioP2
73428;SDS011;61643;49.564;17.412;2024-03-23T00:54:27;11.00;;;6.07;;
73428;SDS011;61643;49.564;17.412;2024-03-23T00:56:53;10.90;;;5.85;;
73428;SDS011;61643;49.564;17.412;2024-03-23T00:59:19;10.43;;;5.78;;
73428;SDS011;61643;49.564;17.412;2024-03-23T01:01:47;10.68;;;5.75;;
73428;SDS011;61643;49.564;17.412;2024-03-23T01:04:13;13.65;;;6.03;;
73428;SDS011;61643;49.564;17.412;2024-03-23T01:06:39;12.07;;;6.10;;
73428;SDS011;61643;49.564;17.412;2024-03-23T01:09:05;14.98;;;6.45;;
73428;SDS011;61643;49.564;17.412;2024-03-23T01:11:31;13.35;;;6.28;;
73428;SDS011;61643;49.564;17.412;2024-03-23T01:13:57;12.27;;;6.70;;
73428;SDS011;61643;49.564;17.412;2024-03-23T01:16:23;11.18;;;6.25;;
73428;SDS011;61643;49.564;17.412;2024-03-23T01:18:49;13.85;;;6.30;;
73428;SDS011;61643;49.564;17.412;2024-03-23T01:21:15;15.48;;;6.75;;
73428;SDS011;61643;49.564;17.412;2024-03-23T01:23:41;13.30;;;6.72;;
73428;SDS011;61643;49.564;17.412;2024-03-23T01:26:07;12.18;;;6.07;;
73428;SDS011;61643;49.564;17.412;2024-03-23T01:28:33;12.40;;;6.40;;
73428;SDS011;61643;49.564;17.412;2024-03-23T01:30:59;13.75;;;5.90;;
73428;SDS011;61643;49.564;17.412;2024-03-23T01:33:25;11.70;;;5.85;;
73428;SDS011;61643;49.564;17.412;2024-03-23T01:35:51;11.73;;;6.15;;
73428;SDS011;61643;49.564;17.412;2024-03-23T01:38:17;14.27;;;6.35;;
73428;SDS011;61643;49.564;17.412;2024-03-23T01:40:43;13.63;;;6.45;;
73428;SDS011;61643;49.564;17.412;2024-03-23T01:43:09;12.52;;;5.88;;
73428;SDS011;61643;49.564;17.412;2024-03-23T01:45:35;11.40;;;6.10;;
73428;SDS011;61643;49.564;17.412;2024-03-23T01:48:02;10.35;;;5.63;;
73428;SDS011;61643;49.564;17.412;2024-03-23T01:50:28;11.35;;;5.30;;
73428;SDS011;61643;49.564;17.412;2024-03-23T01:53:02;13.20;;;6.00;;
73428;SDS011;61643;49.564;17.412;2024-03-23T01:55:31;15.70;;;6.75;;
73428;SDS011;61643;49.564;17.412;2024-03-23T01:57:58;11.02;;;5.70;;
73428;SDS011;61643;49.564;17.412;2024-03-23T02:00:24;12.40;;;6.40;;
73428;SDS011;61643;49.564;17.412;2024-03-23T02:02:50;11.52;;;5.53;;
73428;SDS011;61643;49.564;17.412;2024-03-23T02:05:16;13.32;;;6.40;;
73428;SDS011;61643;49.564;17.412;2024-03-23T02:07:42;15.32;;;6.35;;
73428;SDS011;61643;49.564;17.412;2024-03-23T02:10:09;14.45;;;7.05;;
73428;SDS011;61643;49.564;17.412;2024-03-23T02:12:38;13.02;;;6.00;;
73428;SDS011;61643;49.564;17.412;2024-03-23T02:15:05;11.15;;;5.43;;
73428;SDS011;61643;49.564;17.412;2024-03-23T02:17:33;9.00;;;5.65;;
73428;SDS011;61643;49.564;17.412;2024-03-23T02:20:00;13.00;;;6.43;;
73428;SDS011;61643;49.564;17.412;2024-03-23T02:22:39;15.65;;;6.65;;
73428;SDS011;61643;49.564;17.412;2024-03-23T02:25:05;12.38;;;6.28;;
73428;SDS011;61643;49.564;17.412;2024-03-23T02:27:32;14.98;;;6.38;;
73428;SDS011;61643;49.564;17.412;2024-03-23T02:29:59;12.20;;;6.63;;
73428;SDS011;61643;49.564;17.412;2024-03-23T02:32:25;12.02;;;5.93;;
73428;SDS011;61643;49.564;17.412;2024-03-23T02:34:51;12.88;;;6.57;;
73428;SDS011;61643;49.564;17.412;2024-03-23T02:37:17;13.63;;;6.50;;
73428;SDS011;61643;49.564;17.412;2024-03-23T02:39:43;11.95;;;6.57;;
73428;SDS011;61643;49.564;17.412;2024-03-23T02:42:09;12.88;;;6.38;;
73428;SDS011;61643;49.564;17.412;2024-03-23T02:44:35;11.73;;;6.32;;
73428;SDS011;61643;49.564;17.412;2024-03-23T02:47:01;12.02;;;6.25;;
73428;SDS011;61643;49.564;17.412;2024-03-23T02:49:27;12.90;;;6.13;;
73428;SDS011;61643;49.564;17.412;2024-03-23T02:51:53;11.85;;;5.97;;
73428;SDS011;61643;49.564;17.412;2024-03-23T02:54:19;11.98;;;6.13;;
73428;SDS011;61643;49.564;17.412;2024-03-23T02:56:45;14.13;;;6.53;;
73428;SDS011;61643;49.564;17.412;2024-03-23T02:59:11;12.00;;;5.95;;
73428;SDS011;61643;49.564;17.412;2024-03-23T03:01:37;10.60;;;5.68;;
73428;SDS011;61643;49.564;17.412;2024-03-23T03:04:03;11.30;;;5.80;;
73428;SDS011;61643;49.564;17.412;2024-03-23T03:06:31;11.13;;;6.07;;
73428;SDS011;61643;49.564;17.412;2024-03-23T03:08:57;12.88;;;6.10;;
73428;SDS011;61643;49.564;17.412;2024-03-23T03:11:23;9.07;;;5.43;;
73428;SDS011;61643;49.564;17.412;2024-03-23T03:13:49;13.60;;;6.10;;
73428;SDS011;61643;49.564;17.412;2024-03-23T03:16:15;13.73;;;7.43;;
73428;SDS011;61643;49.564;17.412;2024-03-23T03:18:41;16.67;;;7.35;;
73428;SDS011;61643;49.564;17.412;2024-03-23T03:21:07;11.23;;;5.88;;
73428;SDS011;61643;49.564;17.412;2024-03-23T03:23:39;14.32;;;5.70;;
73428;SDS011;61643;49.564;17.412;2024-03-23T03:26:05;11.82;;;5.75;;
73428;SDS011;61643;49.564;17.412;2024-03-23T03:28:32;9.93;;;5.32;;
73428;SDS011;61643;49.564;17.412;2024-03-23T03:31:01;11.13;;;5.78;;
73428;SDS011;61643;49.564;17.412;2024-03-23T03:33:27;13.73;;;6.55;;
73428;SDS011;61643;49.564;17.412;2024-03-23T03:35:54;10.65;;;6.15;;
73428;SDS011;61643;49.564;17.412;2024-03-23T03:38:20;11.05;;;5.75;;
73428;SDS011;61643;49.564;17.412;2024-03-23T03:40:46;10.88;;;5.57;;
73428;SDS011;61643;49.564;17.412;2024-03-23T03:43:13;11.95;;;5.88;;
73428;SDS011;61643;49.564;17.412;2024-03-23T03:45:39;10.45;;;5.75;;
73428;SDS011;61643;49.564;17.412;2024-03-23T03:48:06;10.93;;;6.10;;
73428;SDS011;61643;49.564;17.412;2024-03-23T03:50:32;9.75;;;5.68;;
73428;SDS011;61643;49.564;17.412;2024-03-23T03:52:58;11.95;;;6.20;;
73428;SDS011;61643;49.564;17.412;2024-03-23T03:55:24;11.07;;;5.65;;
73428;SDS011;61643;49.564;17.412;2024-03-23T03:57:50;11.23;;;5.72;;
73428;SDS011;61643;49.564;17.412;2024-03-23T04:00:16;13.52;;;6.70;;
73428;SDS011;61643;49.564;17.412;2024-03-23T04:02:43;11.63;;;6.00;;
73428;SDS011;61643;49.564;17.412;2024-03-23T04:05:08;9.45;;;5.75;;
73428;SDS011;61643;49.564;17.412;2024-03-23T04:07:34;10.98;;;6.32;;
73428;SDS011;61643;49.564;17.412;2024-03-23T04:10:00;11.43;;;6.28;;
73428;SDS011;61643;49.564;17.412;2024-03-23T04:12:26;11.07;;;5.70;;
73428;SDS011;61643;49.564;17.412;2024-03-23T04:14:52;11.43;;;5.97;;
73428;SDS011;61643;49.564;17.412;2024-03-23T04:17:19;12.32;;;6.07;;
73428;SDS011;61643;49.564;17.412;2024-03-23T04:19:45;10.48;;;5.80;;
73428;SDS011;61643;49.564;17.412;2024-03-23T04:22:11;14.38;;;6.85;;
73428;SDS011;61643;49.564;17.412;2024-03-23T04:24:37;11.85;;;6.13;;
73428;SDS011;61643;49.564;17.412;2024-03-23T04:27:03;14.90;;;6.20;;
73428;SDS011;61643;49.564;17.412;2024-03-23T04:29:29;10.77;;;6.35;;
73428;SDS011;61643;49.564;17.412;2024-03-23T04:31:55;13.15;;;6.75;;
73428;SDS011;61643;49.564;17.412;2024-03-23T04:34:21;14.15;;;7.63;;
73428;SDS011;61643;49.564;17.412;2024-03-23T04:36:48;19.17;;;9.38;;
73428;SDS011;61643;49.564;17.412;2024-03-23T04:39:14;23.40;;;13.15;;
73428;SDS011;61643;49.564;17.412;2024-03-23T04:41:40;25.08;;;13.20;;
73428;SDS011;61643;49.564;17.412;2024-03-23T04:44:06;18.17;;;10.68;;
73428;SDS011;61643;49.564;17.412;2024-03-23T04:46:33;31.08;;;14.85;;
73428;SDS011;61643;49.564;17.412;2024-03-23T04:48:59;30.92;;;15.35;;
73428;SDS011;61643;49.564;17.412;2024-03-23T04:51:25;22.27;;;10.48;;
73428;SDS011;61643;49.564;17.412;2024-03-23T04:53:51;22.15;;;11.95;;
73428;SDS011;61643;49.564;17.412;2024-03-23T04:56:17;14.98;;;8.02;;
73428;SDS011;61643;49.564;17.412;2024-03-23T04:58:44;14.27;;;8.05;;
73428;SDS011;61643;49.564;17.412;2024-03-23T05:01:13;11.10;;;5.80;;
73428;SDS011;61643;49.564;17.412;2024-03-23T05:03:39;13.02;;;6.30;;
73428;SDS011;61643;49.564;17.412;2024-03-23T05:06:05;10.07;;;5.88;;
73428;SDS011;61643;49.564;17.412;2024-03-23T05:08:31;11.55;;;6.45;;
73428;SDS011;61643;49.564;17.412;2024-03-23T05:10:57;12.02;;;6.53;;
73428;SDS011;61643;49.564;17.412;2024-03-23T05:13:23;11.88;;;5.68;;
73428;SDS011;61643;49.564;17.412;2024-03-23T05:15:53;13.27;;;7.50;;
73428;SDS011;61643;49.564;17.412;2024-03-23T05:18:20;12.38;;;6.50;;
73428;SDS011;61643;49.564;17.412;2024-03-23T05:20:46;10.18;;;6.40;;
73428;SDS011;61643;49.564;17.412;2024-03-23T05:23:12;12.68;;;6.40;;
73428;SDS011;61643;49.564;17.412;2024-03-23T05:25:38;11.48;;;6.55;;
73428;SDS011;61643;49.564;17.412;2024-03-23T05:28:04;11.40;;;5.95;;
73428;SDS011;61643;49.564;17.412;2024-03-23T05:30:31;10.00;;;6.38;;
73428;SDS011;61643;49.564;17.412;2024-03-23T05:32:57;14.20;;;7.28;;
73428;SDS011;61643;49.564;17.412;2024-03-23T05:35:23;14.13;;;7.90;;
73428;SDS011;61643;49.564;17.412;2024-03-23T05:37:49;17.05;;;9.73;;
73428;SDS011;61643;49.564;17.412;2024-03-23T05:40:15;13.00;;;8.25;;
73428;SDS011;61643;49.564;17.412;2024-03-23T05:42:41;12.95;;;7.03;;
73428;SDS011;61643;49.564;17.412;2024-03-23T05:45:07;12.13;;;6.22;;
73428;SDS011;61643;49.564;17.412;2024-03-23T05:47:33;12.52;;;6.95;;
73428;SDS011;61643;49.564;17.412;2024-03-23T05:49:59;13.07;;;6.72;;
73428;SDS011;61643;49.564;17.412;2024-03-23T05:52:27;12.55;;;7.97;;
73428;SDS011;61643;49.564;17.412;2024-03-23T05:54:53;10.55;;;6.15;;
73428;SDS011;61643;49.564;17.412;2024-03-23T05:57:19;10.70;;;6.30;;
73428;SDS011;61643;49.564;17.412;2024-03-23T05:59:45;12.10;;;6.20;;
73428;SDS011;61643;49.564;17.412;2024-03-23T06:02:11;12.18;;;6.32;;
73428;SDS011;61643;49.564;17.412;2024-03-23T06:04:37;12.57;;;6.65;;
73428;SDS011;61643;49.564;17.412;2024-03-23T06:07:04;10.88;;;6.07;;
73428;SDS011;61643;49.564;17.412;2024-03-23T06:09:32;12.50;;;6.65;;
73428;SDS011;61643;49.564;17.412;2024-03-23T06:11:58;11.05;;;6.15;;
73428;SDS011;61643;49.564;17.412;2024-03-23T06:14:24;11.68;;;6.53;;
73428;SDS011;61643;49.564;17.412;2024-03-23T06:16:50;12.98;;;6.95;;
73428;SDS011;61643;49.564;17.412;2024-03-23T06:19:16;12.00;;;6.50;;
73428;SDS011;61643;49.564;17.412;2024-03-23T06:21:45;12.90;;;6.88;;
73428;SDS011;61643;49.564;17.412;2024-03-23T06:24:11;12.38;;;6.78;;
73428;SDS011;61643;49.564;17.412;2024-03-23T06:26:37;12.18;;;6.72;;
73428;SDS011;61643;49.564;17.412;2024-03-23T06:29:03;12.50;;;6.75;;
73428;SDS011;61643;49.564;17.412;2024-03-23T06:31:31;12.60;;;6.90;;
73428;SDS011;61643;49.564;17.412;2024-03-23T06:33:57;12.23;;;6.72;;
73428;SDS011;61643;49.564;17.412;2024-03-23T06:36:23;12.70;;;6.55;;
73428;SDS011;61643;49.564;17.412;2024-03-23T06:38:49;12.48;;;6.70;;
73428;SDS011;61643;49.564;17.412;2024-03-23T06:41:15;12.60;;;6.47;;
73428;SDS011;61643;49.564;17.412;2024-03-23T06:43:41;15.35;;;6.75;;
73428;SDS011;61643;49.564;17.412;2024-03-23T06:46:07;13.15;;;7.20;;
73428;SDS011;61643;49.564;17.412;2024-03-23T06:48:33;11.32;;;7.03;;
73428;SDS011;61643;49.564;17.412;2024-03-23T06:50:59;12.65;;;7.35;;
73428;SDS011;61643;49.564;17.412;2024-03-23T06:53:25;13.18;;;6.95;;
73428;SDS011;61643;49.564;17.412;2024-03-23T06:55:52;10.75;;;6.55;;
73428;SDS011;61643;49.564;17.412;2024-03-23T06:58:23;10.80;;;6.57;;
73428;SDS011;61643;49.564;17.412;2024-03-23T07:00:50;10.88;;;6.35;;
73428;SDS011;61643;49.564;17.412;2024-03-23T07:03:16;12.20;;;6.60;;
73428;SDS011;61643;49.564;17.412;2024-03-23T07:05:42;12.20;;;6.60;;
73428;SDS011;61643;49.564;17.412;2024-03-23T07:08:09;14.15;;;7.28;;
73428;SDS011;61643;49.564;17.412;2024-03-23T07:10:35;12.00;;;6.82;;
73428;SDS011;61643;49.564;17.412;2024-03-23T07:13:04;20.23;;;7.55;;
73428;SDS011;61643;49.564;17.412;2024-03-23T07:15:30;14.43;;;7.72;;
73428;SDS011;61643;49.564;17.412;2024-03-23T07:17:56;14.55;;;7.63;;
73428;SDS011;61643;49.564;17.412;2024-03-23T07:20:22;15.70;;;7.60;;
73428;SDS011;61643;49.564;17.412;2024-03-23T07:22:48;13.85;;;6.93;;
73428;SDS011;61643;49.564;17.412;2024-03-23T07:25:14;13.98;;;7.90;;
73428;SDS011;61643;49.564;17.412;2024-03-23T07:27:40;13.00;;;7.10;;
73428;SDS011;61643;49.564;17.412;2024-03-23T07:30:06;13.35;;;7.22;;
73428;SDS011;61643;49.564;17.412;2024-03-23T07:32:34;13.68;;;7.10;;
73428;SDS011;61643;49.564;17.412;2024-03-23T07:35:01;14.07;;;7.22;;
73428;SDS011;61643;49.564;17.412;2024-03-23T07:37:28;12.57;;;7.30;;
73428;SDS011;61643;49.564;17.412;2024-03-23T07:39:54;14.20;;;7.85;;
73428;SDS011;61643;49.564;17.412;2024-03-23T07:42:20;13.68;;;7.03;;
73428;SDS011;61643;49.564;17.412;2024-03-23T07:44:46;17.42;;;7.70;;
73428;SDS011;61643;49.564;17.412;2024-03-23T07:47:12;13.68;;;7.35;;
73428;SDS011;61643;49.564;17.412;2024-03-23T07:49:38;14.95;;;7.30;;
73428;SDS011;61643;49.564;17.412;2024-03-23T07:52:05;12.85;;;7.13;;
73428;SDS011;61643;49.564;17.412;2024-03-23T07:54:31;13.52;;;6.53;;
73428;SDS011;61643;49.564;17.412;2024-03-23T07:56:57;12.93;;;6.93;;
73428;SDS011;61643;49.564;17.412;2024-03-23T07:59:23;13.30;;;6.65;;
73428;SDS011;61643;49.564;17.412;2024-03-23T08:01:50;14.15;;;7.28;;
73428;SDS011;61643;49.564;17.412;2024-03-23T08:04:16;13.07;;;6.63;;
73428;SDS011;61643;49.564;17.412;2024-03-23T08:06:42;11.70;;;7.13;;
73428;SDS011;61643;49.564;17.412;2024-03-23T08:09:08;12.38;;;6.75;;
73428;SDS011;61643;49.564;17.412;2024-03-23T08:11:34;13.77;;;7.05;;
73428;SDS011;61643;49.564;17.412;2024-03-23T08:14:00;16.40;;;6.55;;
73428;SDS011;61643;49.564;17.412;2024-03-23T08:16:27;10.52;;;6.45;;
73428;SDS011;61643;49.564;17.412;2024-03-23T08:18:53;12.10;;;6.75;;
73428;SDS011;61643;49.564;17.412;2024-03-23T08:21:21;11.23;;;6.78;;
73428;SDS011;61643;49.564;17.412;2024-03-23T08:23:47;11.07;;;6.65;;
73428;SDS011;61643;49.564;17.412;2024-03-23T08:26:16;14.50;;;7.13;;
73428;SDS011;61643;49.564;17.412;2024-03-23T08:28:43;13.00;;;6.75;;
73428;SDS011;61643;49.564;17.412;2024-03-23T08:31:10;14.82;;;7.40;;
73428;SDS011;61643;49.564;17.412;2024-03-23T08:36:04;11.20;;;6.88;;
73428;SDS011;61643;49.564;17.412;2024-03-23T08:38:32;13.20;;;7.00;;
73428;SDS011;61643;49.564;17.412;2024-03-23T08:41:01;11.52;;;6.32;;
73428;SDS011;61643;49.564;17.412;2024-03-23T08:43:29;11.77;;;7.00;;
73428;SDS011;61643;49.564;17.412;2024-03-23T08:46:06;13.23;;;7.32;;
73428;SDS011;61643;49.564;17.412;2024-03-23T08:48:38;12.40;;;6.95;;
73428;SDS011;61643;49.564;17.412;2024-03-23T08:51:05;10.63;;;6.57;;
73428;SDS011;61643;49.564;17.412;2024-03-23T08:53:34;13.48;;;5.90;;
73428;SDS011;61643;49.564;17.412;2024-03-23T08:56:01;12.93;;;6.43;;
73428;SDS011;61643;49.564;17.412;2024-03-23T08:58:28;11.65;;;6.53;;
73428;SDS011;61643;49.564;17.412;2024-03-23T09:00:56;11.68;;;6.28;;
73428;SDS011;61643;49.564;17.412;2024-03-23T09:03:28;11.20;;;6.63;;
73428;SDS011;61643;49.564;17.412;2024-03-23T09:05:55;13.65;;;7.05;;
73428;SDS011;61643;49.564;17.412;2024-03-23T09:08:21;10.98;;;6.22;;
73428;SDS011;61643;49.564;17.412;2024-03-23T09:10:47;12.88;;;6.78;;
73428;SDS011;61643;49.564;17.412;2024-03-23T09:13:13;12.35;;;6.85;;
73428;SDS011;61643;49.564;17.412;2024-03-23T09:15:46;10.40;;;6.03;;
73428;SDS011;61643;49.564;17.412;2024-03-23T09:18:14;11.73;;;6.70;;
73428;SDS011;61643;49.564;17.412;2024-03-23T09:20:40;11.98;;;6.75;;
73428;SDS011;61643;49.564;17.412;2024-03-23T09:23:06;13.75;;;7.10;;
73428;SDS011;61643;49.564;17.412;2024-03-23T09:25:32;12.95;;;6.88;;
73428;SDS011;61643;49.564;17.412;2024-03-23T09:28:02;16.23;;;8.02;;
73428;SDS011;61643;49.564;17.412;2024-03-23T09:30:28;13.93;;;6.97;;
73428;SDS011;61643;49.564;17.412;2024-03-23T09:32:54;13.80;;;6.88;;
73428;SDS011;61643;49.564;17.412;2024-03-23T09:35:20;12.35;;;7.45;;
73428;SDS011;61643;49.564;17.412;2024-03-23T09:37:45;17.77;;;7.40;;
73428;SDS011;61643;49.564;17.412;2024-03-23T09:40:11;11.98;;;6.60;;
73428;SDS011;61643;49.564;17.412;2024-03-23T09:42:38;11.10;;;6.80;;
73428;SDS011;61643;49.564;17.412;2024-03-23T09:45:07;10.88;;;6.45;;
73428;SDS011;61643;49.564;17.412;2024-03-23T09:47:43;13.50;;;6.93;;
73428;SDS011;61643;49.564;17.412;2024-03-23T09:50:09;13.27;;;7.00;;
73428;SDS011;61643;49.564;17.412;2024-03-23T09:52:35;14.63;;;7.00;;
73428;SDS011;61643;49.564;17.412;2024-03-23T09:55:01;11.45;;;6.88;;
73428;SDS011;61643;49.564;17.412;2024-03-23T09:59:55;16.02;;;7.40;;
73428;SDS011;61643;49.564;17.412;2024-03-23T10:02:23;12.60;;;6.45;;
73428;SDS011;61643;49.564;17.412;2024-03-23T10:04:50;11.70;;;6.57;;
73428;SDS011;61643;49.564;17.412;2024-03-23T10:07:18;10.10;;;6.45;;
73428;SDS011;61643;49.564;17.412;2024-03-23T10:09:45;11.00;;;6.50;;
73428;SDS011;61643;49.564;17.412;2024-03-23T10:12:16;13.18;;;7.00;;
73428;SDS011;61643;49.564;17.412;2024-03-23T10:14:44;11.80;;;6.72;;
73428;SDS011;61643;49.564;17.412;2024-03-23T10:17:15;12.80;;;6.45;;
73428;SDS011;61643;49.564;17.412;2024-03-23T10:19:48;9.68;;;6.05;;
73428;SDS011;61643;49.564;17.412;2024-03-23T10:22:18;9.70;;;6.05;;
73428;SDS011;61643;49.564;17.412;2024-03-23T10:24:46;10.32;;;6.25;;
73428;SDS011;61643;49.564;17.412;2024-03-23T10:27:15;9.05;;;4.70;;
73428;SDS011;61643;49.564;17.412;2024-03-23T10:29:44;8.20;;;4.40;;
73428;SDS011;61643;49.564;17.412;2024-03-23T10:32:11;6.93;;;4.63;;
73428;SDS011;61643;49.564;17.412;2024-03-23T10:34:39;9.35;;;4.22;;
73428;SDS011;61643;49.564;17.412;2024-03-23T10:37:06;7.65;;;4.20;;
73428;SDS011;61643;49.564;17.412;2024-03-23T10:39:34;12.88;;;4.68;;
73428;SDS011;61643;49.564;17.412;2024-03-23T10:42:03;7.40;;;4.63;;
73428;SDS011;61643;49.564;17.412;2024-03-23T10:44:38;10.13;;;4.45;;
73428;SDS011;61643;49.564;17.412;2024-03-23T10:47:04;6.85;;;4.93;;
73428;SDS011;61643;49.564;17.412;2024-03-23T10:49:35;11.43;;;5.88;;
73428;SDS011;61643;49.564;17.412;2024-03-23T10:52:02;7.97;;;5.00;;
73428;SDS011;61643;49.564;17.412;2024-03-23T10:54:30;7.32;;;4.47;;
73428;SDS011;61643;49.564;17.412;2024-03-23T10:57:04;5.82;;;3.70;;
73428;SDS011;61643;49.564;17.412;2024-03-23T10:59:36;6.75;;;4.28;;
73428;SDS011;61643;49.564;17.412;2024-03-23T11:02:03;6.97;;;3.53;;
73428;SDS011;61643;49.564;17.412;2024-03-23T11:04:30;6.40;;;3.30;;
73428;SDS011;61643;49.564;17.412;2024-03-23T11:06:57;7.28;;;3.30;;
73428;SDS011;61643;49.564;17.412;2024-03-23T11:09:39;4.45;;;3.10;;
73428;SDS011;61643;49.564;17.412;2024-03-23T11:17:28;5.88;;;3.08;;
73428;SDS011;61643;49.564;17.412;2024-03-23T11:25:18;4.82;;;2.00;;
73428;SDS011;61643;49.564;17.412;2024-03-23T11:27:50;3.47;;;2.10;;
73428;SDS011;61643;49.564;17.412;2024-03-23T11:30:20;4.78;;;2.70;;
73428;SDS011;61643;49.564;17.412;2024-03-23T11:32:50;4.70;;;2.28;;
73428;SDS011;61643;49.564;17.412;2024-03-23T11:35:26;8.10;;;2.83;;
73428;SDS011;61643;49.564;17.412;2024-03-23T11:38:09;3.50;;;2.38;;
73428;SDS011;61643;49.564;17.412;2024-03-23T11:40:44;4.78;;;2.95;;
73428;SDS011;61643;49.564;17.412;2024-03-23T11:43:18;4.97;;;2.83;;
73428;SDS011;61643;49.564;17.412;2024-03-23T11:45:45;4.78;;;2.65;;
73428;SDS011;61643;49.564;17.412;2024-03-23T11:48:14;4.82;;;3.15;;
73428;SDS011;61643;49.564;17.412;2024-03-23T11:50:41;6.38;;;3.75;;
73428;SDS011;61643;49.564;17.412;2024-03-23T11:53:15;4.75;;;2.80;;
73428;SDS011;61643;49.564;17.412;2024-03-23T11:58:17;4.72;;;2.92;;
73428;SDS011;61643;49.564;17.412;2024-03-23T12:03:29;5.63;;;3.08;;
73428;SDS011;61643;49.564;17.412;2024-03-23T12:05:58;5.13;;;2.92;;
73428;SDS011;61643;49.564;17.412;2024-03-23T12:13:53;3.75;;;2.83;;
73428;SDS011;61643;49.564;17.412;2024-03-23T12:16:25;3.95;;;2.88;;
73428;SDS011;61643;49.564;17.412;2024-03-23T12:18:53;5.28;;;3.15;;
73428;SDS011;61643;49.564;17.412;2024-03-23T12:21:30;3.78;;;2.80;;
73428;SDS011;61643;49.564;17.412;2024-03-23T12:23:56;7.22;;;3.83;;
73428;SDS011;61643;49.564;17.412;2024-03-23T12:26:22;5.80;;;3.40;;
73428;SDS011;61643;49.564;17.412;2024-03-23T12:28:48;10.98;;;3.50;;
73428;SDS011;61643;49.564;17.412;2024-03-23T12:31:14;4.70;;;3.67;;
73428;SDS011;61643;49.564;17.412;2024-03-23T12:33:40;7.47;;;3.25;;
73428;SDS011;61643;49.564;17.412;2024-03-23T12:36:06;5.80;;;3.08;;
73428;SDS011;61643;49.564;17.412;2024-03-23T12:38:32;11.98;;;2.63;;
73428;SDS011;61643;49.564;17.412;2024-03-23T12:40:58;9.35;;;1.98;;
73428;SDS011;61643;49.564;17.412;2024-03-23T12:43:25;6.57;;;1.75;;
73428;SDS011;61643;49.564;17.412;2024-03-23T12:45:51;12.23;;;2.05;;
73428;SDS011;61643;49.564;17.412;2024-03-23T12:48:17;5.70;;;1.65;;
73428;SDS011;61643;49.564;17.412;2024-03-23T12:50:43;4.88;;;1.75;;
73428;SDS011;61643;49.564;17.412;2024-03-23T12:53:09;6.68;;;1.67;;
73428;SDS011;61643;49.564;17.412;2024-03-23T12:55:36;3.20;;;1.83;;
73428;SDS011;61643;49.564;17.412;2024-03-23T12:58:02;3.80;;;1.58;;
73428;SDS011;61643;49.564;17.412;2024-03-23T13:00:28;3.72;;;1.60;;
73428;SDS011;61643;49.564;17.412;2024-03-23T13:02:54;3.40;;;1.52;;
73428;SDS011;61643;49.564;17.412;2024-03-23T13:05:20;4.55;;;2.20;;
73428;SDS011;61643;49.564;17.412;2024-03-23T13:07:46;2.67;;;1.58;;
73428;SDS011;61643;49.564;17.412;2024-03-23T13:10:12;2.13;;;1.17;;
73428;SDS011;61643;49.564;17.412;2024-03-23T13:12:40;2.45;;;1.05;;
73428;SDS011;61643;49.564;17.412;2024-03-23T13:15:06;2.08;;;1.10;;
73428;SDS011;61643;49.564;17.412;2024-03-23T13:17:32;2.70;;;1.67;;
73428;SDS011;61643;49.564;17.412;2024-03-23T13:19:58;4.47;;;1.42;;
73428;SDS011;61643;49.564;17.412;2024-03-23T13:22:24;2.40;;;1.20;;
73428;SDS011;61643;49.564;17.412;2024-03-23T13:24:50;1.45;;;1.00;;
73428;SDS011;61643;49.564;17.412;2024-03-23T13:27:16;1.98;;;1.17;;
73428;SDS011;61643;49.564;17.412;2024-03-23T13:29:42;2.13;;;0.90;;
73428;SDS011;61643;49.564;17.412;2024-03-23T13:32:08;2.30;;;1.25;;
73428;SDS011;61643;49.564;17.412;2024-03-23T13:34:34;4.75;;;3.70;;
73428;SDS011;61643;49.564;17.412;2024-03-23T13:37:00;6.18;;;4.32;;
73428;SDS011;61643;49.564;17.412;2024-03-23T13:39:27;5.50;;;3.67;;
73428;SDS011;61643;49.564;17.412;2024-03-23T13:41:53;1.75;;;1.33;;
73428;SDS011;61643;49.564;17.412;2024-03-23T13:44:20;9.20;;;4.20;;
73428;SDS011;61643;49.564;17.412;2024-03-23T13:46:46;1.98;;;1.30;;
73428;SDS011;61643;49.564;17.412;2024-03-23T13:49:18;4.05;;;3.10;;
73428;SDS011;61643;49.564;17.412;2024-03-23T13:51:51;7.88;;;4.22;;
73428;SDS011;61643;49.564;17.412;2024-03-23T13:54:17;2.97;;;2.20;;
73428;SDS011;61643;49.564;17.412;2024-03-23T13:56:43;4.78;;;2.90;;
73428;SDS011;61643;49.564;17.412;2024-03-23T13:59:10;1.67;;;1.10;;
73428;SDS011;61643;49.564;17.412;2024-03-23T14:01:36;2.60;;;2.20;;
73428;SDS011;61643;49.564;17.412;2024-03-23T14:04:02;1.50;;;1.40;;
73428;SDS011;61643;49.564;17.412;2024-03-23T14:06:28;2.17;;;1.63;;
73428;SDS011;61643;49.564;17.412;2024-03-23T14:08:54;2.05;;;1.80;;
73428;SDS011;61643;49.564;17.412;2024-03-23T14:11:20;3.33;;;1.48;;
73428;SDS011;61643;49.564;17.412;2024-03-23T14:13:45;2.80;;;1.10;;
73428;SDS011;61643;49.564;17.412;2024-03-23T14:16:11;1.42;;;1.13;;
73428;SDS011;61643;49.564;17.412;2024-03-23T14:18:37;4.50;;;3.92;;
73428;SDS011;61643;49.564;17.412;2024-03-23T14:21:03;2.10;;;1.77;;
73428;SDS011;61643;49.564;17.412;2024-03-23T14:23:30;3.30;;;2.50;;
73428;SDS011;61643;49.564;17.412;2024-03-23T14:25:59;1.88;;;1.15;;
73428;SDS011;61643;49.564;17.412;2024-03-23T14:28:26;1.55;;;1.10;;
73428;SDS011;61643;49.564;17.412;2024-03-23T14:30:54;2.35;;;2.10;;
73428;SDS011;61643;49.564;17.412;2024-03-23T14:33:21;2.08;;;1.65;;
73428;SDS011;61643;49.564;17.412;2024-03-23T14:35:54;2.10;;;1.27;;
73428;SDS011;61643;49.564;17.412;2024-03-23T14:38:23;1.92;;;1.60;;
73428;SDS011;61643;49.564;17.412;2024-03-23T14:40:49;1.50;;;1.13;;
73428;SDS011;61643;49.564;17.412;2024-03-23T14:43:18;3.03;;;1.30;;
73428;SDS011;61643;49.564;17.412;2024-03-23T14:48:40;1.60;;;1.20;;
73428;SDS011;61643;49.564;17.412;2024-03-23T14:51:07;1.80;;;1.17;;
73428;SDS011;61643;49.564;17.412;2024-03-23T14:53:34;1.60;;;1.17;;
73428;SDS011;61643;49.564;17.412;2024-03-23T14:56:02;2.53;;;1.75;;
73428;SDS011;61643;49.564;17.412;2024-03-23T14:58:28;2.80;;;1.40;;
73428;SDS011;61643;49.564;17.412;2024-03-23T15:03:27;3.60;;;1.33;;
73428;SDS011;61643;49.564;17.412;2024-03-23T15:05:54;1.52;;;0.98;;
73428;SDS011;61643;49.564;17.412;2024-03-23T15:08:21;1.40;;;1.00;;
73428;SDS011;61643;49.564;17.412;2024-03-23T15:10:47;2.88;;;1.23;;
73428;SDS011;61643;49.564;17.412;2024-03-23T15:13:13;1.38;;;1.25;;
73428;SDS011;61643;49.564;17.412;2024-03-23T15:15:43;1.77;;;1.08;;
73428;SDS011;61643;49.564;17.412;2024-03-23T15:18:13;1.27;;;1.10;;
73428;SDS011;61643;49.564;17.412;2024-03-23T15:21:00;3.63;;;2.20;;
73428;SDS011;61643;49.564;17.412;2024-03-23T15:23:33;3.28;;;2.40;;
73428;SDS011;61643;49.564;17.412;2024-03-23T15:25:59;6.18;;;3.05;;
73428;SDS011;61643;49.564;17.412;2024-03-23T15:28:28;3.47;;;2.30;;
73428;SDS011;61643;49.564;17.412;2024-03-23T15:31:07;3.25;;;2.42;;
73428;SDS011;61643;49.564;17.412;2024-03-23T15:36:02;7.97;;;4.10;;
73428;SDS011;61643;49.564;17.412;2024-03-23T15:38:28;2.75;;;2.20;;
73428;SDS011;61643;49.564;17.412;2024-03-23T15:40:55;2.70;;;2.00;;
73428;SDS011;61643;49.564;17.412;2024-03-23T15:43:21;2.47;;;1.60;;
73428;SDS011;61643;49.564;17.412;2024-03-23T15:45:53;1.58;;;1.40;;
73428;SDS011;61643;49.564;17.412;2024-03-23T15:48:20;3.10;;;1.70;;
73428;SDS011;61643;49.564;17.412;2024-03-23T15:50:53;3.15;;;1.70;;
73428;SDS011;61643;49.564;17.412;2024-03-23T15:53:20;3.78;;;2.40;;